createdAt,value
2024-01-28T04:32:17.018Z,-1.37
2024-01-28T04:34:44.432Z,-1.56
2024-01-28T04:37:11.633Z,-1.58
2024-01-28T04:39:39.055Z,-1.38
2024-01-28T04:42:07.531Z,-1.24
2024-01-28T04:44:34.553Z,-1.14
2024-01-28T04:47:02.712Z,-0.95
2024-01-28T04:49:30.284Z,-1.19
2024-01-28T04:51:58.094Z,-1.33
2024-01-28T04:54:25.184Z,-1.29
2024-01-28T04:56:52.610Z,-1.16
2024-01-28T04:59:19.660Z,-1.10
2024-01-28T05:01:47.131Z,-0.76
2024-01-28T05:04:14.484Z,-0.98
2024-01-28T05:06:41.720Z,-1.45
2024-01-28T05:09:10.492Z,-1.07
2024-01-28T05:11:37.944Z,-1.17
2024-01-28T05:14:05.671Z,-1.13
2024-01-28T05:16:32.797Z,-1.44
2024-01-28T05:19:00.884Z,-1.34
2024-01-28T05:21:28.016Z,-1.97
2024-01-28T05:23:55.066Z,-1.33
2024-01-28T05:26:22.246Z,-1.38
2024-01-28T05:28:49.835Z,-1.48
2024-01-28T05:31:16.881Z,-1.48
2024-01-28T05:33:45.048Z,-1.41
2024-01-28T05:36:15.390Z,-1.88
2024-01-28T05:38:43.039Z,-1.77
2024-01-28T05:41:10.158Z,-1.51
2024-01-28T05:43:37.278Z,-1.47
2024-01-28T05:46:04.709Z,-1.28
2024-01-28T05:48:32.786Z,-1.36
2024-01-28T05:51:00.035Z,-1.40
2024-01-28T05:53:27.063Z,-1.49
2024-01-28T05:55:54.115Z,-1.53
2024-01-28T05:58:22.542Z,-1.35
2024-01-28T06:00:49.838Z,-1.19
2024-01-28T06:03:17.032Z,-1.30
2024-01-28T06:05:44.149Z,-1.50
2024-01-28T06:08:11.326Z,-1.52
2024-01-28T06:10:38.394Z,-1.46
2024-01-28T06:13:05.625Z,-1.40
2024-01-28T06:15:32.963Z,-1.53
2024-01-28T06:18:02.403Z,-1.81
2024-01-28T06:20:29.477Z,-1.94
2024-01-28T06:22:56.481Z,-1.84
2024-01-28T06:25:23.538Z,-1.72
2024-01-28T06:27:50.717Z,-1.41
2024-01-28T06:30:17.992Z,-1.50
2024-01-28T06:32:45.059Z,-1.56
2024-01-28T06:35:12.115Z,-1.45
2024-01-28T06:37:39.139Z,-1.49
2024-01-28T06:40:08.376Z,-1.52
2024-01-28T06:42:35.442Z,-1.59
2024-01-28T06:45:02.684Z,-1.43
2024-01-28T06:47:29.765Z,-1.20
2024-01-28T06:49:57.123Z,-1.54
2024-01-28T06:52:24.259Z,-1.57
2024-01-28T06:54:51.314Z,-1.65
2024-01-28T06:57:20.561Z,-1.72
2024-01-28T06:59:47.634Z,-1.68
2024-01-28T07:02:14.654Z,-1.73
2024-01-28T07:04:42.300Z,-2.00
2024-01-28T07:07:09.686Z,-2.03
2024-01-28T07:09:36.857Z,-2.26
2024-01-28T07:12:05.091Z,-2.65
2024-01-28T07:14:32.204Z,-3.07
2024-01-28T07:16:59.278Z,-3.21
2024-01-28T07:19:26.412Z,-2.62
2024-01-28T07:21:53.583Z,-2.18
2024-01-28T07:24:20.808Z,-1.94
2024-01-28T07:26:48.425Z,-1.56
2024-01-28T07:29:15.435Z,-1.76
2024-01-28T07:31:42.960Z,-2.27
2024-01-28T07:34:10.258Z,-1.77
2024-01-28T07:36:39.077Z,-1.53
2024-01-28T07:39:08.332Z,-1.69
2024-01-28T07:41:37.487Z,-1.76
2024-01-28T07:44:04.994Z,-1.59
2024-01-28T07:46:31.976Z,-1.41
2024-01-28T07:48:59.229Z,-1.23
2024-01-28T07:51:26.368Z,-1.15
2024-01-28T07:53:53.426Z,-1.00
2024-01-28T07:56:20.404Z,-1.01
2024-01-28T07:58:47.505Z,-1.19
2024-01-28T08:01:14.515Z,-1.16
2024-01-28T08:03:41.662Z,-0.98
2024-01-28T08:06:09.239Z,-0.72
2024-01-28T08:08:36.381Z,-0.57
2024-01-28T08:11:04.043Z,-1.26
2024-01-28T08:13:31.605Z,-1.22
2024-01-28T08:16:03.120Z,-2.58
2024-01-28T08:18:30.800Z,-1.35
2024-01-28T08:20:57.954Z,-1.69
2024-01-28T08:23:25.304Z,-0.97
2024-01-28T08:25:52.457Z,-1.19
2024-01-28T08:28:19.590Z,-1.44
2024-01-28T08:30:47.463Z,-0.34
2024-01-28T08:33:14.609Z,-0.54
2024-01-28T08:35:42.776Z,-0.60
2024-01-28T08:38:10.300Z,-0.31
2024-01-28T08:40:39.049Z,-0.01
2024-01-28T08:43:08.343Z,0.17
2024-01-28T08:45:37.655Z,0.37
2024-01-28T08:48:05.613Z,0.45
2024-01-28T08:50:32.854Z,0.69
2024-01-28T08:52:59.883Z,0.69
2024-01-28T08:55:26.913Z,0.98
2024-01-28T08:57:54.102Z,1.23
2024-01-28T09:00:21.401Z,1.34
2024-01-28T09:02:48.517Z,1.66
2024-01-28T09:05:15.564Z,1.30
2024-01-28T09:07:46.888Z,0.51
2024-01-28T09:10:14.019Z,0.15
2024-01-28T09:12:41.355Z,0.79
2024-01-28T09:15:08.824Z,1.42
2024-01-28T09:17:35.895Z,-0.46
2024-01-28T09:20:03.087Z,0.46
2024-01-28T09:22:30.342Z,-0.34
2024-01-28T09:24:57.531Z,-1.56
2024-01-28T09:27:24.871Z,0.22
2024-01-28T09:29:52.303Z,0.51
2024-01-28T09:32:22.536Z,-0.43
2024-01-28T09:34:49.798Z,0.39
2024-01-28T09:37:17.143Z,1.48
2024-01-28T09:39:45.182Z,1.03
2024-01-28T09:42:20.744Z,1.65
2024-01-28T09:44:48.825Z,1.86
2024-01-28T09:47:15.812Z,2.17
2024-01-28T09:49:43.022Z,2.33
2024-01-28T09:52:11.843Z,2.64
2024-01-28T09:54:48.057Z,2.68
2024-01-28T09:57:16.404Z,3.03
2024-01-28T09:59:44.204Z,2.80
2024-01-28T10:02:11.332Z,3.17
2024-01-28T10:04:39.469Z,2.33
2024-01-28T10:07:08.911Z,2.92
2024-01-28T10:09:36.068Z,3.37
2024-01-28T10:12:03.963Z,3.76
2024-01-28T10:14:30.991Z,2.43
2024-01-28T10:16:59.210Z,2.31
2024-01-28T10:19:26.471Z,2.79
2024-01-28T10:21:54.366Z,3.46
2024-01-28T10:24:21.559Z,3.46
2024-01-28T10:26:49.047Z,3.39
2024-01-28T10:29:17.202Z,3.85
2024-01-28T10:31:44.318Z,4.24
2024-01-28T10:34:11.574Z,3.69
2024-01-28T10:36:41.650Z,4.08
2024-01-28T10:39:11.508Z,4.37
2024-01-28T10:41:39.774Z,4.31
2024-01-28T10:44:07.857Z,4.68
2024-01-28T10:46:41.068Z,4.88
2024-01-28T10:49:09.161Z,5.01
2024-01-28T10:51:37.428Z,3.84
2024-01-28T10:54:05.792Z,3.79
2024-01-28T10:56:33.764Z,4.62
2024-01-28T10:59:00.973Z,4.20
2024-01-28T11:01:28.540Z,4.85
2024-01-28T11:03:56.406Z,4.92
2024-01-28T11:06:26.079Z,4.40
2024-01-28T11:08:56.652Z,4.63
2024-01-28T11:11:24.519Z,5.23
2024-01-28T11:13:51.668Z,5.53
2024-01-28T11:16:20.593Z,5.91
2024-01-28T11:18:57.295Z,5.80
2024-01-28T11:21:25.980Z,5.13
2024-01-28T11:23:54.662Z,5.33
2024-01-28T11:26:21.805Z,5.54
2024-01-28T11:28:53.926Z,4.20
2024-01-28T11:31:24.512Z,3.69
2024-01-28T11:33:51.804Z,4.99
2024-01-28T11:36:25.448Z,5.20
2024-01-28T11:38:52.888Z,5.26
2024-01-28T11:41:20.296Z,5.34
2024-01-28T11:43:47.967Z,4.98
2024-01-28T11:46:15.308Z,5.09
2024-01-28T11:48:43.521Z,5.39
2024-01-28T11:51:11.397Z,5.80
2024-01-28T11:53:39.050Z,6.05
2024-01-28T11:56:09.465Z,6.39
2024-01-28T11:58:36.618Z,5.80
2024-01-28T12:01:04.399Z,6.39
2024-01-28T12:03:31.543Z,6.52
2024-01-28T12:05:59.171Z,6.80
2024-01-28T12:08:29.642Z,7.23
2024-01-28T12:11:00.257Z,6.91
2024-01-28T12:13:28.288Z,6.99
2024-01-28T12:16:00.531Z,6.89
2024-01-28T12:18:34.833Z,7.13
2024-01-28T12:21:02.147Z,6.59
2024-01-28T12:23:33.009Z,6.33
2024-01-28T12:26:00.256Z,6.02
2024-01-28T12:28:27.277Z,5.79
2024-01-28T12:30:56.117Z,6.00
2024-01-28T12:33:23.489Z,6.60
2024-01-28T12:35:50.896Z,6.87
2024-01-28T12:38:18.017Z,6.48
2024-01-28T12:40:45.096Z,7.03
2024-01-28T12:43:12.353Z,6.82
2024-01-28T12:45:39.773Z,6.78
2024-01-28T12:48:07.529Z,6.82
2024-01-28T12:50:34.552Z,7.18
2024-01-28T12:53:01.736Z,7.49
2024-01-28T12:55:28.849Z,7.76
2024-01-28T12:57:56.436Z,7.80
2024-01-28T13:00:23.737Z,7.90
2024-01-28T13:02:51.160Z,8.40
2024-01-28T13:05:18.607Z,6.14
2024-01-28T13:07:45.684Z,5.98
2024-01-28T13:10:12.671Z,6.90
2024-01-28T13:12:40.146Z,7.70
2024-01-28T13:15:08.826Z,7.61
2024-01-28T13:17:37.330Z,5.64
2024-01-28T13:20:05.061Z,4.42
2024-01-28T13:22:32.144Z,4.09
2024-01-28T13:24:59.924Z,3.94
2024-01-28T13:27:27.062Z,5.42
2024-01-28T13:29:56.472Z,6.32
2024-01-28T13:32:25.462Z,7.21
2024-01-28T13:34:52.752Z,6.78
2024-01-28T13:37:19.807Z,5.26
2024-01-28T13:39:47.012Z,6.63
2024-01-28T13:42:14.164Z,6.63
2024-01-28T13:44:41.153Z,6.83
2024-01-28T13:47:08.529Z,6.72
2024-01-28T13:49:35.683Z,5.63
2024-01-28T13:52:05.066Z,6.63
2024-01-28T13:54:32.581Z,7.14
2024-01-28T13:56:59.712Z,4.82
2024-01-28T13:59:26.687Z,4.48
2024-01-28T14:01:53.764Z,4.51
2024-01-28T14:04:21.436Z,4.12
2024-01-28T14:06:49.043Z,3.65
2024-01-28T14:09:18.157Z,4.13
2024-01-28T14:11:45.246Z,5.06
2024-01-28T14:14:12.937Z,6.20
2024-01-28T14:16:39.945Z,6.86
2024-01-28T14:19:07.101Z,6.43
2024-01-28T14:21:34.695Z,6.31
2024-01-28T14:24:01.745Z,6.21
2024-01-28T14:26:28.774Z,5.25
2024-01-28T14:28:55.741Z,6.55
2024-01-28T14:31:26.177Z,7.26
2024-01-28T14:33:54.634Z,7.26
2024-01-28T14:36:21.960Z,7.17
2024-01-28T14:38:49.413Z,6.98
2024-01-28T14:41:17.460Z,6.63
2024-01-28T14:43:44.579Z,6.89
2024-01-28T14:46:12.096Z,6.98
2024-01-28T14:48:40.228Z,6.73
2024-01-28T14:51:07.909Z,5.92
2024-01-28T14:53:34.968Z,7.11
2024-01-28T14:56:02.952Z,5.33
2024-01-28T14:58:29.972Z,3.99
2024-01-28T15:00:57.073Z,4.17
2024-01-28T15:03:24.095Z,4.91
2024-01-28T15:05:51.280Z,6.18
2024-01-28T15:08:18.242Z,6.87
2024-01-28T15:10:45.959Z,6.64
2024-01-28T15:13:13.014Z,7.04
2024-01-28T15:15:40.098Z,7.42
2024-01-28T15:18:07.384Z,7.35
2024-01-28T15:20:34.458Z,7.87
2024-01-28T15:23:01.439Z,7.68
2024-01-28T15:25:28.493Z,7.76
2024-01-28T15:27:55.731Z,7.64
2024-01-28T15:30:23.820Z,7.59
2024-01-28T15:32:51.038Z,7.41
2024-01-28T15:35:18.204Z,7.33
2024-01-28T15:37:45.279Z,7.39
2024-01-28T15:40:13.179Z,7.42
2024-01-28T15:42:40.774Z,7.56
2024-01-28T15:45:08.623Z,7.36
2024-01-28T15:47:37.736Z,7.49
2024-01-28T15:50:05.201Z,7.74
2024-01-28T15:52:32.300Z,7.64
2024-01-28T15:54:59.488Z,7.89
2024-01-28T15:57:26.709Z,7.33
2024-01-28T16:00:04.580Z,6.82
2024-01-28T16:02:34.761Z,6.35
2024-01-28T16:05:02.104Z,5.72
2024-01-28T16:07:29.376Z,5.24
2024-01-28T16:09:57.768Z,4.88
2024-01-28T16:12:25.794Z,4.37
2024-01-28T16:14:52.973Z,4.32
2024-01-28T16:17:24.800Z,4.17
2024-01-28T16:19:52.465Z,4.00
2024-01-28T16:22:19.915Z,4.28
2024-01-28T16:24:47.446Z,4.30
2024-01-28T16:27:14.596Z,4.21
2024-01-28T16:29:45.472Z,4.29
2024-01-28T16:32:13.418Z,4.28
2024-01-28T16:34:41.041Z,3.97
2024-01-28T16:37:08.337Z,4.16
2024-01-28T16:39:35.975Z,4.26
2024-01-28T16:42:03.157Z,3.98
2024-01-28T16:44:30.930Z,3.59
2024-01-28T16:46:58.247Z,3.32
2024-01-28T16:49:26.174Z,3.11
2024-01-28T16:51:53.728Z,3.18
2024-01-28T16:54:21.248Z,3.21
2024-01-28T16:56:48.866Z,3.34
2024-01-28T16:59:17.055Z,3.37
2024-01-28T17:01:44.399Z,3.56
2024-01-28T17:04:11.807Z,3.52
2024-01-28T17:06:39.924Z,3.42
2024-01-28T17:09:07.203Z,3.33
2024-01-28T17:11:34.734Z,3.43
2024-01-28T17:14:06.114Z,3.60
2024-01-28T17:16:33.509Z,3.54
2024-01-28T17:19:02.965Z,3.46
2024-01-28T17:21:30.261Z,3.54
2024-01-28T17:23:57.366Z,3.31
2024-01-28T17:26:24.390Z,3.53
2024-01-28T17:28:53.951Z,3.37
2024-01-28T17:31:21.070Z,3.41
2024-01-28T17:33:48.423Z,3.54
2024-01-28T17:36:16.342Z,3.71
2024-01-28T17:38:43.605Z,3.67
2024-01-28T17:41:10.874Z,4.03
2024-01-28T17:43:38.053Z,3.85
2024-01-28T17:46:05.401Z,3.58
2024-01-28T17:48:32.827Z,3.29
2024-01-28T17:51:00.025Z,2.74
2024-01-28T17:53:27.358Z,2.65
2024-01-28T17:55:55.500Z,2.61
2024-01-28T17:58:22.973Z,2.61
2024-01-28T18:00:50.181Z,2.69
2024-01-28T18:03:17.356Z,2.64
2024-01-28T18:05:45.456Z,2.71
2024-01-28T18:08:12.666Z,2.72
2024-01-28T18:10:39.814Z,2.91
2024-01-28T18:13:06.949Z,2.79
2024-01-28T18:15:34.081Z,2.68
2024-01-28T18:18:02.545Z,2.73
2024-01-28T18:20:31.319Z,2.73
2024-01-28T18:22:58.466Z,2.50
2024-01-28T18:25:27.546Z,2.69
2024-01-28T18:27:55.040Z,2.47
2024-01-28T18:30:22.436Z,2.46
2024-01-28T18:32:50.036Z,2.56
2024-01-28T18:35:17.900Z,2.24
2024-01-28T18:37:45.161Z,2.29
2024-01-28T18:40:15.219Z,2.21
2024-01-28T18:42:43.278Z,2.35
2024-01-28T18:45:11.471Z,2.26
2024-01-28T18:47:38.631Z,2.28
2024-01-28T18:50:06.486Z,1.91
2024-01-28T18:52:33.647Z,1.80
2024-01-28T18:55:01.020Z,1.98
2024-01-28T18:57:28.575Z,1.92
2024-01-28T18:59:55.641Z,1.94
2024-01-28T19:02:22.790Z,2.04
2024-01-28T19:04:49.974Z,1.77
2024-01-28T19:07:17.188Z,1.85
2024-01-28T19:09:46.250Z,1.95
2024-01-28T19:12:13.553Z,2.31
2024-01-28T19:14:40.640Z,2.05
2024-01-28T19:17:07.687Z,2.22
2024-01-28T19:19:35.103Z,2.19
2024-01-28T19:22:02.417Z,2.00
2024-01-28T19:24:30.827Z,2.09
2024-01-28T19:26:58.354Z,2.14
2024-01-28T19:29:26.577Z,2.20
2024-01-28T19:31:53.832Z,2.43
2024-01-28T19:34:21.159Z,1.94
2024-01-28T19:36:48.912Z,1.91
2024-01-28T19:39:16.847Z,2.03
2024-01-28T19:41:47.619Z,1.95
2024-01-28T19:44:15.761Z,1.98
2024-01-28T19:46:43.120Z,1.83
2024-01-28T19:49:10.357Z,1.74
2024-01-28T19:51:37.490Z,1.54
2024-01-28T19:54:04.677Z,1.62
2024-01-28T19:56:31.757Z,1.59
2024-01-28T19:59:00.964Z,1.46
2024-01-28T20:01:29.023Z,1.33
2024-01-28T20:03:56.427Z,1.12
2024-01-28T20:06:32.517Z,1.28
2024-01-28T20:09:05.520Z,1.69
2024-01-28T20:11:32.970Z,1.50
2024-01-28T20:13:59.962Z,1.46
2024-01-28T20:16:27.061Z,1.23
2024-01-28T20:18:54.242Z,1.10
2024-01-28T20:21:22.075Z,1.16
2024-01-28T20:23:49.233Z,1.14
2024-01-28T20:26:16.714Z,1.27
2024-01-28T20:28:44.076Z,1.54
2024-01-28T20:31:16.140Z,1.43
2024-01-28T20:33:43.344Z,1.55
2024-01-28T20:36:10.470Z,1.69
2024-01-28T20:38:38.072Z,1.77
2024-01-28T20:41:05.212Z,1.93
2024-01-28T20:43:32.713Z,1.79
2024-01-28T20:46:01.154Z,1.63
2024-01-28T20:48:28.823Z,1.41
2024-01-28T20:50:57.199Z,0.92
2024-01-28T20:53:25.404Z,1.21
2024-01-28T20:55:52.511Z,1.27
2024-01-28T20:58:19.650Z,1.33
2024-01-28T21:00:48.092Z,1.56
2024-01-28T21:03:15.440Z,1.42
2024-01-28T21:05:42.696Z,1.35
2024-01-28T21:08:10.098Z,1.32
2024-01-28T21:10:39.769Z,1.35
2024-01-28T21:13:07.352Z,1.28
2024-01-28T21:15:34.621Z,1.20
2024-01-28T21:18:02.266Z,1.22
2024-01-28T21:20:30.036Z,1.57
2024-01-28T21:22:57.155Z,1.52
2024-01-28T21:25:24.756Z,1.37
2024-01-28T21:27:53.749Z,1.31
2024-01-28T21:30:20.905Z,1.37
2024-01-28T21:32:48.129Z,1.39
2024-01-28T21:35:15.405Z,1.35
2024-01-28T21:37:42.440Z,1.35
2024-01-28T21:40:09.930Z,1.42
2024-01-28T21:42:37.237Z,1.29
2024-01-28T21:45:05.901Z,1.24
2024-01-28T21:47:34.089Z,1.40
2024-01-28T21:50:01.425Z,0.65
2024-01-28T21:52:28.584Z,0.97
2024-01-28T21:54:55.866Z,1.04
2024-01-28T21:57:23.448Z,0.91
2024-01-28T21:59:50.701Z,0.86
2024-01-28T22:02:17.703Z,0.86
2024-01-28T22:04:44.798Z,0.89
2024-01-28T22:07:12.439Z,0.86
2024-01-28T22:09:39.546Z,0.89
2024-01-28T22:12:07.562Z,1.13
2024-01-28T22:14:34.770Z,0.98
2024-01-28T22:17:01.776Z,0.67
2024-01-28T22:19:29.425Z,0.57
2024-01-28T22:21:56.507Z,0.21
2024-01-28T22:24:24.534Z,0.16
2024-01-28T22:26:51.597Z,0.27
2024-01-28T22:29:18.804Z,0.57
2024-01-28T22:31:45.926Z,0.44
2024-01-28T22:34:13.136Z,0.20
2024-01-28T22:36:40.316Z,-1.18
2024-01-28T22:39:08.084Z,-0.64
2024-01-28T22:41:35.311Z,-0.57
2024-01-28T22:44:02.415Z,-0.11
2024-01-28T22:46:29.561Z,0.40
2024-01-28T22:48:56.728Z,0.41
2024-01-28T22:51:23.894Z,0.38
2024-01-28T22:53:50.901Z,0.27
2024-01-28T22:56:18.291Z,0.56
2024-01-28T22:58:45.566Z,0.45
